Time;durP1;ratioP1;P1;durP2;ratioP2;P2;SDS_P1;SDS_P2;PMS_P1;PMS_P2;Temp;Humidity;BMP_temperature;BMP_pressure;BME280_temperature;BME280_humidity;BME280_pressure;Samples;Min_cycle;Max_cycle;Signal;HPM_P1;HPM_P2
2023/04/03 00:04:25;;;;;;;4.57;2.00;;;-0.70;99.90;;;;;;8295278;28;20205;-77
2023/04/03 00:08:54;;;;;;;6.30;2.83;;;-0.80;99.90;;;;;;8303361;28;20227;-79
2023/04/03 00:13:09;;;;;;;7.47;2.77;;;-0.90;99.90;;;;;;8195275;28;20199;-79
2023/04/03 00:17:19;;;;;;;4.17;2.00;;;-1.00;99.90;;;;;;8304039;28;20194;-78
2023/04/03 00:21:23;;;;;;;4.73;1.77;;;-1.00;99.90;;;;;;8312886;28;20272;-78
2023/04/03 00:25:27;;;;;;;5.53;2.10;;;-1.10;99.90;;;;;;8311913;28;20235;-77
2023/04/03 00:29:34;;;;;;;5.50;2.03;;;-1.10;99.90;;;;;;8318613;28;20349;-77
2023/04/03 00:33:59;;;;;;;7.43;1.87;;;-1.10;99.90;;;;;;8246510;28;20212;-78
2023/04/03 00:38:00;;;;;;;4.90;2.03;;;-1.10;99.90;;;;;;8260664;28;20200;-79
2023/04/03 00:42:16;;;;;;;6.00;2.17;;;-1.20;99.90;;;;;;8260789;28;20270;-79
2023/04/03 00:51:27;;;;;;;4.10;1.27;;;-1.20;99.90;;;;;;8255970;28;20190;-79
2023/04/03 00:55:38;;;;;;;3.83;1.53;;;-1.30;99.90;;;;;;8264992;28;20209;-79
2023/04/03 00:59:57;;;;;;;3.07;1.73;;;-1.30;99.90;;;;;;8268784;28;20190;-78
2023/04/03 01:04:42;;;;;;;3.30;1.30;;;-1.30;99.90;;;;;;8261679;28;20260;-79
2023/04/03 01:09:15;;;;;;;;;;;;;;;;;;;;;
2023/04/03 01:14:08;;;;;;;;;;;;;;;;;;;;;
2023/04/03 01:18:26;;;;;;;3.20;1.60;;;-1.60;99.90;;;;;;8370792;28;20204;-79
2023/04/03 01:22:51;;;;;;;3.20;1.50;;;-1.60;99.90;;;;;;8360435;28;20186;-80
2023/04/03 01:27:24;;;;;;;4.83;1.90;;;-1.60;99.90;;;;;;8364813;28;20207;-79
2023/04/03 01:32:17;;;;;;;;;;;;;;;;;;;;;
2023/04/03 01:37:24;;;;;;;3.30;1.90;;;-1.70;99.90;;;;;;8200316;28;20204;-78
2023/04/03 01:41:35;;;;;;;5.30;1.50;;;-1.80;99.90;;;;;;8249827;28;20197;-78
2023/04/03 01:45:54;;;;;;;4.20;2.03;;;-1.90;1.00;;;;;;8231127;28;20196;-80
2023/04/03 01:49:58;;;;;;;3.03;1.83;;;-1.90;1.00;;;;;;8223394;28;20224;-78
2023/04/03 01:54:51;;;;;;;4.43;2.20;;;-1.90;1.00;;;;;;8223070;28;20198;-79
2023/04/03 01:59:17;;;;;;;;;;;;;;;;;;;;;
2023/04/03 02:03:42;;;;;;;2.37;1.40;;;-2.00;1.00;;;;;;8234369;28;20192;-79
2023/04/03 02:08:32;;;;;;;;;;;;;;;;;;;;;
2023/04/03 02:12:36;;;;;;;5.33;1.57;;;-2.00;25.70;;;;;;8217750;28;20213;-80
2023/04/03 02:17:04;;;;;;;4.47;1.37;;;-2.00;25.70;;;;;;8230138;28;20192;-80
2023/04/03 02:21:25;;;;;;;3.93;1.77;;;-2.00;6.80;;;;;;8323419;28;20230;-79
2023/04/03 02:30:36;;;;;;;3.50;1.23;;;-2.10;99.90;;;;;;8331412;28;20226;-79
2023/04/03 02:34:37;;;;;;;5.60;1.80;;;-2.30;67.30;;;;;;8309028;28;20195;-80
2023/04/03 02:38:48;;;;;;;5.00;1.87;;;-2.30;99.90;;;;;;8323700;28;20246;-79
2023/04/03 02:42:58;;;;;;;4.60;1.93;;;-2.40;99.90;;;;;;8301407;28;20188;-79
2023/04/03 02:47:41;;;;;;;;;;;;;;;;;;;;;
2023/04/03 02:51:43;;;;;;;4.57;1.80;;;-2.30;99.90;;;;;;8302595;28;20187;-77
2023/04/03 02:55:57;;;;;;;4.70;1.80;;;-2.50;99.90;;;;;;8293264;28;20227;-77
2023/04/03 03:00:19;;;;;;;4.07;1.33;;;-2.70;99.90;;;;;;8299670;28;20290;-77
2023/04/03 03:05:07;;;;;;;5.97;1.50;;;-2.70;1.00;;;;;;8272399;28;20194;-77
2023/04/03 03:09:12;;;;;;;8.70;1.87;;;-2.60;1.00;;;;;;8295716;28;20231;-77
2023/04/03 03:13:22;;;;;;;4.90;1.60;;;-2.50;1.00;;;;;;8240650;28;20193;-78
2023/04/03 03:17:24;;;;;;;6.37;1.57;;;-2.60;1.00;;;;;;8249409;28;20227;-77
2023/04/03 03:21:37;;;;;;;4.33;2.00;;;-2.70;1.00;;;;;;8268511;28;20256;-77
2023/04/03 03:25:41;;;;;;;4.50;1.70;;;-2.80;1.00;;;;;;8272000;28;20192;-76
2023/04/03 03:30:08;;;;;;;3.90;1.63;;;-2.70;99.90;;;;;;8266665;28;20219;-75
2023/04/03 03:34:09;;;;;;;1.37;1.13;;;-2.70;99.90;;;;;;8250073;28;20195;-76
2023/04/03 03:38:11;;;;;;;3.30;1.87;;;-2.90;1.00;;;;;;8266472;28;20207;-76
2023/04/03 03:42:15;;;;;;;4.37;1.73;;;-3.00;99.90;;;;;;8261399;28;20176;-77
2023/04/03 03:47:01;;;;;;;3.93;1.77;;;-2.90;1.00;;;;;;8270535;28;20180;-77
2023/04/03 03:51:37;;;;;;;4.40;1.60;;;-2.80;99.90;;;;;;8254960;28;20195;-77
2023/04/03 03:55:42;;;;;;;5.67;1.90;;;-2.80;99.90;;;;;;8334913;28;20225;-78
2023/04/03 04:00:05;;;;;;;5.57;1.93;;;-2.80;99.90;;;;;;8357422;28;20185;-77
2023/04/03 04:04:09;;;;;;;5.00;1.57;;;-2.80;44.30;;;;;;8341075;28;20193;-77
2023/04/03 04:08:54;;;;;;;4.33;1.63;;;-2.90;99.90;;;;;;8340572;28;20208;-78
2023/04/03 04:12:55;;;;;;;3.60;1.43;;;-2.90;99.90;;;;;;8276629;28;20230;-77
2023/04/03 04:17:05;;;;;;;5.03;1.97;;;-3.00;96.60;;;;;;8262825;28;20207;-77
2023/04/03 04:21:53;;;;;;;5.43;1.77;;;-3.00;99.90;;;;;;8263282;28;20204;-77
2023/04/03 04:26:34;;;;;;;3.53;1.63;;;-3.00;99.90;;;;;;8273008;28;20327;-78
2023/04/03 04:30:35;;;;;;;8.20;2.20;;;-3.00;1.00;;;;;;8190318;28;20211;-78
2023/04/03 04:34:42;;;;;;;3.70;1.57;;;-2.90;99.90;;;;;;8262659;28;20197;-78
2023/04/03 04:38:46;;;;;;;5.00;1.67;;;-2.90;99.90;;;;;;8259449;28;20199;-78
2023/04/03 04:43:15;;;;;;;4.40;1.90;;;-3.00;1.00;;;;;;8294922;28;20194;-78
2023/04/03 04:47:20;;;;;;;4.40;1.67;;;-2.90;99.90;;;;;;8316162;28;20249;-79
2023/04/03 04:51:39;;;;;;;5.40;1.90;;;-2.90;99.90;;;;;;8347339;28;20186;-77
2023/04/03 04:55:56;;;;;;;;;;;;;;;;;;;;;
2023/04/03 05:00:39;;;;;;;4.63;2.00;;;-2.80;1.00;;;;;;8339894;28;20194;-77
2023/04/03 05:05:12;;;;;;;2.60;1.40;;;-2.70;99.90;;;;;;8225957;28;20541;-79
2023/04/03 05:09:34;;;;;;;4.83;1.30;;;-2.60;99.90;;;;;;8171259;28;20252;-76
2023/04/03 05:18:53;;;;;;;2.90;1.63;;;-2.40;1.00;;;;;;8240408;28;20207;-77
2023/04/03 05:23:00;;;;;;;2.73;1.73;;;-2.30;1.00;;;;;;8343676;28;20190;-77
2023/04/03 05:27:02;;;;;;;4.37;1.80;;;-2.20;99.90;;;;;;8318063;28;20214;-77
2023/04/03 05:41:21;;;;;;;5.43;2.20;;;-1.90;99.90;;;;;;8092195;29;20268;-77
2023/04/03 05:45:24;;;;;;;6.33;2.40;;;-1.70;1.00;;;;;;8162312;28;20203;-79
2023/04/03 05:50:12;;;;;;;;;;;;;;;;;;;;;
2023/04/03 05:54:38;;;;;;;11.40;3.57;;;-1.30;99.90;;;;;;8227137;28;20210;-80
2023/04/03 06:03:31;;;;;;;17.10;7.30;;;-1.20;98.60;;;;;;8209074;28;20210;-80
2023/04/03 06:07:59;;;;;;;8.80;2.60;;;-1.10;36.60;;;;;;8213641;28;20222;-80
2023/04/03 06:12:03;;;;;;;8.93;3.63;;;-1.00;16.80;;;;;;8214735;28;20181;-80
2023/04/03 06:16:36;;;;;;;7.93;3.30;;;-0.90;1.00;;;;;;8328818;28;20187;-80
2023/04/03 06:20:40;;;;;;;12.63;2.00;;;-0.80;1.00;;;;;;8336018;28;20215;-80
2023/04/03 06:24:41;;;;;;;13.93;5.17;;;-0.70;1.00;;;;;;8318527;28;20199;-80
2023/04/03 06:28:42;;;;;;;13.47;5.60;;;-0.50;1.00;;;;;;8323274;28;20266;-80
2023/04/03 06:32:49;;;;;;;12.27;5.33;;;-0.40;1.00;;;;;;8318115;28;20268;-79
2023/04/03 06:36:50;;;;;;;3.87;2.83;;;-0.30;1.00;;;;;;8327881;28;20224;-80
2023/04/03 06:40:58;;;;;;;13.47;5.17;;;-0.10;99.90;;;;;;8326679;28;20189;-79
2023/04/03 06:45:01;;;;;;;21.37;9.60;;;0.10;99.90;;;;;;8327497;28;20186;-80
2023/04/03 06:49:03;;;;;;;23.93;11.80;;;0.20;99.90;;;;;;8330525;28;20232;-80
2023/04/03 06:53:14;;;;;;;32.97;16.40;;;0.30;99.90;;;;;;8343767;28;20202;-80
2023/04/03 06:57:15;;;;;;;15.67;7.47;;;0.40;99.90;;;;;;8326056;28;20224;-80
2023/04/03 07:01:18;;;;;;;18.17;8.00;;;0.60;99.90;;;;;;8325923;28;20196;-79
2023/04/03 07:05:20;;;;;;;8.53;3.60;;;0.80;99.90;;;;;;8329484;28;20194;-78
2023/04/03 07:09:24;;;;;;;16.77;8.07;;;1.00;99.90;;;;;;8341628;28;20209;-78
2023/04/03 07:13:26;;;;;;;7.83;3.67;;;1.00;99.90;;;;;;8358098;28;20197;-78
2023/04/03 07:17:27;;;;;;;6.90;2.17;;;1.20;99.90;;;;;;8348060;28;20194;-78
2023/04/03 07:21:29;;;;;;;11.20;3.57;;;1.20;99.90;;;;;;8359281;28;20206;-79
2023/04/03 07:25:29;;;;;;;11.13;4.43;;;1.20;99.90;;;;;;8352211;28;20190;-74
2023/04/03 07:29:31;;;;;;;8.03;5.23;;;1.30;99.90;;;;;;8336482;28;20218;-78
2023/04/03 07:33:32;;;;;;;6.77;3.30;;;1.40;99.90;;;;;;8328063;28;20189;-77
2023/04/03 07:37:33;;;;;;;9.23;4.03;;;1.60;99.90;;;;;;8326833;28;20194;-78
2023/04/03 07:41:38;;;;;;;5.87;2.70;;;1.80;99.90;;;;;;8326424;28;20261;-78
2023/04/03 07:45:39;;;;;;;3.70;2.27;;;2.00;99.90;;;;;;8341109;28;20186;-78
2023/04/03 07:49:45;;;;;;;5.87;3.53;;;2.10;81.30;;;;;;8323997;28;20221;-79
2023/04/03 07:53:46;;;;;;;6.03;2.17;;;2.20;41.60;;;;;;8321257;28;20193;-80
2023/04/03 07:57:47;;;;;;;3.07;1.67;;;2.40;38.10;;;;;;8326907;28;20217;-77
2023/04/03 08:01:53;;;;;;;7.77;4.10;;;2.60;30.50;;;;;;8347773;28;20182;-80
2023/04/03 08:10:53;;;;;;;5.17;2.73;;;2.60;19.80;;;;;;8342483;28;20197;-79
2023/04/03 08:14:55;;;;;;;6.23;2.90;;;2.80;19.70;;;;;;8314375;28;20281;-80
2023/04/03 08:19:06;;;;;;;5.27;2.73;;;3.10;11.80;;;;;;8335074;28;20177;-79
2023/04/03 08:23:16;;;;;;;6.87;2.90;;;3.50;1.00;;;;;;8336195;28;20198;-80
2023/04/03 08:27:17;;;;;;;5.67;3.03;;;3.90;1.00;;;;;;8330236;28;20221;-80
2023/04/03 08:31:19;;;;;;;15.93;6.50;;;4.10;1.00;;;;;;8340788;28;20182;-81
2023/04/03 08:35:20;;;;;;;28.60;8.87;;;4.10;1.00;;;;;;8323669;28;20205;-81
2023/04/03 08:39:49;;;;;;;10.00;4.20;;;4.10;1.00;;;;;;8320812;28;20181;-82
2023/04/03 08:44:03;;;;;;;5.00;2.57;;;4.10;1.00;;;;;;8315750;28;20237;-80
2023/04/03 08:48:26;;;;;;;13.97;5.40;;;4.10;1.00;;;;;;8315472;28;20216;-78
2023/04/03 08:52:53;;;;;;;61.23;15.83;;;4.30;1.00;;;;;;8337749;28;20242;-80
2023/04/03 08:56:55;;;;;;;9.53;5.53;;;4.70;1.00;;;;;;8370422;28;20236;-79
2023/04/03 09:01:03;;;;;;;11.70;6.03;;;5.10;1.00;;;;;;8364999;28;20173;-80
2023/04/03 09:05:19;;;;;;;15.27;7.97;;;4.90;1.00;;;;;;8376739;28;20244;-80
2023/04/03 09:09:45;;;;;;;5.17;2.20;;;4.60;1.00;;;;;;8341880;28;20241;-80
2023/04/03 09:14:13;;;;;;;10.97;4.93;;;4.40;1.00;;;;;;8327289;28;20193;-80
2023/04/03 09:18:39;;;;;;;8.60;4.23;;;4.50;1.00;;;;;;8308426;28;20182;-77
2023/04/03 09:22:44;;;;;;;5.77;2.30;;;4.60;1.00;;;;;;8315060;28;20217;-76
2023/04/03 09:26:53;;;;;;;10.70;5.83;;;5.20;1.00;;;;;;8300395;28;20229;-79
2023/04/03 09:30:54;;;;;;;7.57;3.57;;;5.60;1.00;;;;;;8278408;28;20289;-79
2023/04/03 09:35:15;;;;;;;12.73;7.10;;;5.10;1.00;;;;;;8267052;28;20289;-79
2023/04/03 09:39:29;;;;;;;8.63;4.30;;;4.70;1.00;;;;;;8282004;28;20256;-79
2023/04/03 09:43:32;;;;;;;9.73;5.27;;;4.70;1.00;;;;;;8271416;28;20194;-79
2023/04/03 09:47:39;;;;;;;3.83;1.87;;;5.20;1.00;;;;;;8285759;28;20214;-79
2023/04/03 09:51:40;;;;;;;5.50;2.50;;;5.80;1.00;;;;;;8284901;28;20289;-78
2023/04/03 09:55:44;;;;;;;10.03;3.67;;;5.60;1.00;;;;;;8283916;28;20214;-78
2023/04/03 09:59:58;;;;;;;5.30;2.93;;;5.40;1.00;;;;;;8302047;28;20218;-78
2023/04/03 10:04:19;;;;;;;7.67;2.80;;;5.20;1.00;;;;;;8280330;28;20257;-78
2023/04/03 10:08:24;;;;;;;3.70;1.60;;;5.20;1.00;;;;;;8283020;28;20256;-78
2023/04/03 10:12:25;;;;;;;3.23;1.80;;;4.50;1.00;;;;;;8279346;28;20186;-78
2023/04/03 10:16:37;;;;;;;3.20;1.40;;;4.30;1.00;;;;;;8308392;28;20190;-77
2023/04/03 10:20:44;;;;;;;3.90;1.70;;;4.30;1.00;;;;;;8285760;28;20191;-78
2023/04/03 10:25:13;;;;;;;3.13;1.40;;;4.10;1.00;;;;;;8294772;28;20209;-78
2023/04/03 10:29:50;;;;;;;4.57;2.90;;;4.10;1.00;;;;;;8313133;28;20224;-78
2023/04/03 10:34:24;;;;;;;7.00;3.13;;;4.30;1.00;;;;;;8309196;28;20179;-77
2023/04/03 10:39:03;;;;;;;2.57;1.30;;;5.00;1.00;;;;;;8312304;28;20194;-78
2023/04/03 10:43:43;;;;;;;3.27;1.33;;;4.70;1.00;;;;;;8312381;28;20198;-79
2023/04/03 10:48:22;;;;;;;11.73;5.30;;;4.30;1.00;;;;;;8294479;28;20315;-79
2023/04/03 10:52:51;;;;;;;6.70;4.47;;;4.30;1.00;;;;;;8305463;28;20215;-78
2023/04/03 10:57:01;;;;;;;4.50;2.43;;;5.20;1.00;;;;;;8294313;28;20225;-78
2023/04/03 11:01:45;;;;;;;9.80;5.00;;;5.50;1.00;;;;;;8306361;28;20213;-77
2023/04/03 11:05:53;;;;;;;3.73;1.70;;;5.60;1.00;;;;;;8314940;28;20199;-78
2023/04/03 11:10:00;;;;;;;4.17;2.30;;;5.90;1.00;;;;;;8304249;28;20227;-77
2023/04/03 11:14:30;;;;;;;6.37;3.57;;;5.70;1.00;;;;;;8291030;28;20218;-78
2023/04/03 11:19:10;;;;;;;2.50;1.60;;;5.40;1.00;;;;;;8294086;28;20195;-78
2023/04/03 11:23:27;;;;;;;3.83;1.70;;;5.90;1.00;;;;;;8283994;28;20198;-78
2023/04/03 11:27:35;;;;;;;2.37;1.40;;;4.90;1.00;;;;;;8298619;28;20225;-75
2023/04/03 11:31:39;;;;;;;3.83;1.60;;;4.90;1.00;;;;;;8303537;28;20208;-76
2023/04/03 11:35:49;;;;;;;3.17;1.40;;;5.00;1.00;;;;;;8366063;28;20189;-74
2023/04/03 11:40:09;;;;;;;4.17;2.20;;;5.20;1.00;;;;;;8356103;28;20319;-78
2023/04/03 11:44:38;;;;;;;2.17;1.43;;;5.20;1.00;;;;;;8394435;28;20193;-79
2023/04/03 11:48:45;;;;;;;3.50;2.23;;;5.10;1.00;;;;;;8390073;28;20210;-79
2023/04/03 11:52:49;;;;;;;3.20;1.97;;;5.20;1.00;;;;;;8395167;28;20299;-79
2023/04/03 11:56:50;;;;;;;2.40;1.20;;;5.50;1.00;;;;;;8366071;28;20235;-77
2023/04/03 12:01:08;;;;;;;5.33;1.43;;;5.70;1.00;;;;;;8356944;28;20197;-78
2023/04/03 12:05:27;;;;;;;2.40;1.30;;;5.30;1.00;;;;;;8372388;28;20219;-78
2023/04/03 12:09:36;;;;;;;3.23;1.80;;;5.40;1.00;;;;;;8356336;28;20228;-77
2023/04/03 12:13:45;;;;;;;5.87;1.80;;;5.60;1.00;;;;;;8356453;28;20185;-77
2023/04/03 12:17:51;;;;;;;7.37;3.47;;;5.40;1.00;;;;;;8378054;28;20239;-78
2023/04/03 12:21:57;;;;;;;6.17;3.27;;;5.30;1.00;;;;;;8356435;28;20242;-79
2023/04/03 12:26:21;;;;;;;10.90;5.30;;;5.60;1.00;;;;;;8347256;28;20193;-78
2023/04/03 12:30:30;;;;;;;2.53;1.50;;;6.20;1.00;;;;;;8352442;28;20217;-79
2023/04/03 12:34:53;;;;;;;3.73;2.53;;;6.10;1.00;;;;;;8357106;28;20189;-80
2023/04/03 12:39:23;;;;;;;;;;;;;;;;;;;;;
2023/04/03 12:43:45;;;;;;;6.20;3.50;;;6.70;1.00;;;;;;8367879;28;20213;-79
2023/04/03 12:47:54;;;;;;;12.37;5.00;;;6.70;1.00;;;;;;8347843;28;20212;-79
2023/04/03 12:51:59;;;;;;;6.67;2.63;;;6.30;1.00;;;;;;8374283;28;20189;-79
2023/04/03 12:56:41;;;;;;;3.83;1.57;;;6.20;1.00;;;;;;8359714;28;20205;-79
2023/04/03 13:00:42;;;;;;;2.90;1.93;;;6.30;1.00;;;;;;8259237;28;20193;-78
2023/04/03 13:04:43;;;;;;;4.63;2.27;;;6.60;1.00;;;;;;8301610;28;20207;-77
2023/04/03 13:08:59;;;;;;;11.07;5.43;;;6.80;1.00;;;;;;8360116;28;20310;-78
2023/04/03 13:13:11;;;;;;;3.17;2.43;;;6.50;1.00;;;;;;8371078;28;20194;-79
2023/04/03 13:17:16;;;;;;;4.27;2.90;;;6.00;1.00;;;;;;8349005;28;20228;-78
2023/04/03 13:21:52;;;;;;;;;;;;;;;;;;;;;
2023/04/03 13:25:54;;;;;;;2.27;1.67;;;5.70;1.00;;;;;;8388677;28;20201;-78
2023/04/03 13:29:59;;;;;;;5.40;1.80;;;6.30;1.00;;;;;;8394768;28;20228;-79
2023/04/03 13:34:15;;;;;;;9.87;4.13;;;6.60;1.00;;;;;;8383638;28;20189;-79
2023/04/03 13:38:20;;;;;;;3.60;1.70;;;6.30;1.00;;;;;;8390251;28;20181;-79
2023/04/03 13:42:32;;;;;;;4.53;2.50;;;6.20;1.00;;;;;;8391540;28;20192;-80
2023/04/03 13:46:36;;;;;;;4.57;1.60;;;6.00;1.00;;;;;;8378885;28;20192;-81
2023/04/03 13:50:56;;;;;;;5.53;2.50;;;5.60;1.00;;;;;;8361990;28;20245;-79
2023/04/03 13:55:01;;;;;;;3.07;2.13;;;5.60;1.00;;;;;;8376488;28;20254;-78
2023/04/03 13:59:11;;;;;;;4.37;2.97;;;5.80;1.00;;;;;;8346659;28;20225;-76
2023/04/03 14:03:39;;;;;;;3.37;2.20;;;5.80;1.00;;;;;;8363554;28;20260;-78
2023/04/03 14:07:40;;;;;;;10.23;4.63;;;6.30;1.00;;;;;;8352772;28;20234;-83
2023/04/03 14:11:49;;;;;;;6.37;3.90;;;6.40;1.00;;;;;;8361033;28;20261;-83
2023/04/03 14:15:51;;;;;;;12.70;6.57;;;6.70;1.00;;;;;;8365795;28;20319;-82
2023/04/03 14:20:00;;;;;;;13.13;7.20;;;6.70;1.00;;;;;;8352268;28;20201;-78
2023/04/03 14:24:11;;;;;;;7.80;4.03;;;6.50;1.00;;;;;;8352617;28;20297;-76
2023/04/03 14:28:39;;;;;;;4.70;2.53;;;6.30;1.00;;;;;;8360322;28;20227;-80
2023/04/03 14:32:52;;;;;;;7.33;3.43;;;6.10;1.00;;;;;;8353571;28;20259;-77
2023/04/03 14:36:56;;;;;;;78.33;46.43;;;6.20;1.00;;;;;;8385756;28;20220;-77
2023/04/03 14:40:58;;;;;;;15.80;10.03;;;6.10;1.00;;;;;;8353103;28;20243;-79
2023/04/03 14:45:01;;;;;;;31.70;18.67;;;6.00;1.00;;;;;;8398183;28;20190;-78
2023/04/03 14:49:07;;;;;;;7.53;3.63;;;6.30;1.00;;;;;;8372760;28;20209;-81
2023/04/03 14:53:11;;;;;;;4.47;2.40;;;6.40;1.00;;;;;;8333356;28;20228;-79
2023/04/03 14:57:14;;;;;;;35.23;20.23;;;6.10;1.00;;;;;;8354035;28;20225;-80
2023/04/03 15:01:15;;;;;;;21.63;13.90;;;5.90;1.00;;;;;;8371259;28;20266;-77
2023/04/03 15:05:17;;;;;;;3.43;1.90;;;5.90;1.00;;;;;;8359743;28;20194;-76
2023/04/03 15:09:27;;;;;;;30.50;20.23;;;5.60;1.00;;;;;;8364166;28;20200;-77
2023/04/03 15:13:30;;;;;;;5.93;3.73;;;5.30;1.00;;;;;;8389446;28;20185;-77
2023/04/03 15:17:32;;;;;;;10.60;5.63;;;5.30;1.00;;;;;;8368235;28;20189;-76
2023/04/03 15:21:33;;;;;;;13.87;7.90;;;5.30;1.00;;;;;;8378722;28;20235;-76
2023/04/03 15:25:39;;;;;;;25.77;10.97;;;5.30;1.00;;;;;;8382545;28;20185;-77
2023/04/03 15:29:41;;;;;;;42.23;20.17;;;5.40;1.00;;;;;;8363446;28;20252;-76
2023/04/03 15:33:43;;;;;;;39.63;19.93;;;5.50;1.00;;;;;;8378870;28;20189;-76
2023/04/03 15:38:04;;;;;;;31.10;13.30;;;5.60;1.00;;;;;;8379675;28;20190;-78
2023/04/03 15:42:05;;;;;;;25.17;10.80;;;5.60;1.00;;;;;;8377869;28;20205;-78
2023/04/03 15:46:06;;;;;;;22.83;9.60;;;5.50;1.00;;;;;;8364225;28;20188;-78
2023/04/03 15:50:08;;;;;;;41.87;21.33;;;5.40;1.00;;;;;;8362393;28;20212;-78
2023/04/03 15:54:13;;;;;;;50.43;27.00;;;5.30;1.00;;;;;;8358800;28;20191;-77
2023/04/03 15:58:14;;;;;;;122.43;55.67;;;5.10;1.00;;;;;;8361700;28;20320;-76
2023/04/03 16:02:21;;;;;;;42.10;20.60;;;5.00;1.00;;;;;;8365433;28;20273;-76
2023/04/03 16:06:25;;;;;;;96.07;44.77;;;5.00;1.00;;;;;;8367027;28;20177;-78
2023/04/03 16:10:26;;;;;;;89.23;38.00;;;4.90;1.00;;;;;;8373781;28;20304;-77
2023/04/03 16:14:36;;;;;;;107.37;46.60;;;4.90;1.00;;;;;;8369513;28;20184;-77
2023/04/03 16:18:47;;;;;;;18.93;8.90;;;4.80;1.00;;;;;;8356638;28;20190;-77
2023/04/03 16:22:49;;;;;;;63.17;26.83;;;4.70;1.00;;;;;;8374891;28;20216;-76
2023/04/03 16:26:50;;;;;;;137.40;53.97;;;4.60;1.00;;;;;;8360302;28;20239;-76
2023/04/03 16:30:54;;;;;;;66.93;27.50;;;4.60;1.00;;;;;;8363377;28;20369;-77
2023/04/03 16:34:56;;;;;;;14.03;6.93;;;4.60;1.00;;;;;;8382564;28;20184;-77
2023/04/03 16:38:57;;;;;;;25.07;11.37;;;4.60;1.00;;;;;;8393279;28;20181;-76
2023/04/03 16:42:58;;;;;;;66.87;27.60;;;4.60;1.00;;;;;;8406403;28;20212;-76
2023/04/03 16:46:59;;;;;;;63.90;27.13;;;4.60;1.00;;;;;;8388920;28;20203;-75
2023/04/03 16:51:03;;;;;;;103.77;40.57;;;4.50;1.00;;;;;;8386305;28;20189;-76
2023/04/03 16:55:05;;;;;;;84.37;37.80;;;4.40;1.00;;;;;;8367833;28;20280;-77
2023/04/03 16:59:07;;;;;;;64.47;31.37;;;4.30;1.00;;;;;;8378207;28;20197;-77
2023/04/03 17:03:08;;;;;;;22.53;9.90;;;4.20;1.00;;;;;;8359854;28;20189;-76
2023/04/03 17:07:09;;;;;;;9.80;4.70;;;4.10;1.00;;;;;;8366713;28;20188;-77
2023/04/03 17:11:10;;;;;;;8.87;4.70;;;3.90;1.00;;;;;;8359392;28;20205;-77
2023/04/03 17:15:11;;;;;;;5.03;3.07;;;3.90;1.00;;;;;;8360921;28;20192;-77
2023/04/03 17:19:13;;;;;;;9.40;4.17;;;3.80;1.00;;;;;;8361518;28;20197;-76
2023/04/03 17:23:14;;;;;;;6.27;3.23;;;3.70;1.00;;;;;;8358809;28;20246;-77
2023/04/03 17:27:15;;;;;;;7.77;4.20;;;3.60;1.00;;;;;;8360380;28;20180;-77
2023/04/03 17:31:22;;;;;;;8.27;4.70;;;3.50;1.00;;;;;;8351216;28;20230;-76
2023/04/03 17:35:26;;;;;;;8.63;4.03;;;3.40;1.00;;;;;;8355972;28;20254;-75
2023/04/03 17:39:27;;;;;;;12.90;5.20;;;3.40;1.00;;;;;;8377265;28;20192;-75
2023/04/03 17:43:28;;;;;;;8.43;5.00;;;3.30;1.00;;;;;;8369271;28;20189;-74
2023/04/03 17:47:29;;;;;;;11.90;5.67;;;3.30;1.00;;;;;;8369579;28;20219;-75
2023/04/03 17:51:33;;;;;;;21.13;9.80;;;3.20;1.00;;;;;;8371049;28;20249;-75
2023/04/03 17:55:40;;;;;;;8.70;4.90;;;3.20;1.00;;;;;;8381210;28;20312;-75
2023/04/03 17:59:41;;;;;;;15.73;6.53;;;3.10;1.00;;;;;;8354581;28;20274;-76
2023/04/03 18:03:43;;;;;;;13.00;6.50;;;3.00;1.00;;;;;;8338572;28;20272;-78
2023/04/03 18:07:44;;;;;;;11.55;6.72;;;3.00;1.00;;;;;;8349873;28;20440;-77
2023/04/03 18:12:06;;;;;;;18.00;8.20;;;3.00;1.00;;;;;;8350641;28;20177;-79
2023/04/03 18:16:10;;;;;;;48.27;20.90;;;3.00;1.00;;;;;;8344631;28;20192;-77
2023/04/03 18:20:15;;;;;;;41.43;19.17;;;3.00;1.00;;;;;;8348406;28;20193;-77
2023/04/03 18:24:19;;;;;;;27.03;13.27;;;3.00;1.00;;;;;;8372320;28;20185;-77
2023/04/03 18:28:20;;;;;;;31.87;15.37;;;3.00;1.00;;;;;;8353326;28;20277;-76
2023/04/03 18:32:22;;;;;;;39.17;17.30;;;2.90;1.00;;;;;;8361906;28;20183;-78
2023/04/03 18:36:23;;;;;;;76.80;31.73;;;2.90;1.00;;;;;;8363735;28;20258;-78
2023/04/03 18:40:24;;;;;;;62.93;26.60;;;2.90;1.00;;;;;;8364948;28;20295;-77
2023/04/03 18:44:26;;;;;;;17.83;9.70;;;2.90;1.00;;;;;;8378034;28;20220;-77
2023/04/03 18:48:28;;;;;;;49.63;25.20;;;2.90;1.00;;;;;;8380357;28;20193;-76
2023/04/03 18:52:30;;;;;;;40.43;20.10;;;2.80;1.00;;;;;;8352503;28;20188;-77
2023/04/03 18:56:31;;;;;;;37.13;19.90;;;2.80;1.00;;;;;;8362887;28;20216;-77
2023/04/03 19:00:33;;;;;;;40.53;20.33;;;2.80;1.00;;;;;;8357020;28;20193;-77
2023/04/03 19:04:35;;;;;;;19.33;10.50;;;2.80;1.00;;;;;;8361947;28;20181;-77
2023/04/03 19:08:36;;;;;;;44.07;22.63;;;2.80;1.00;;;;;;8380314;28;20271;-77
2023/04/03 19:12:37;;;;;;;35.63;16.73;;;2.70;1.00;;;;;;8363600;28;20227;-77
2023/04/03 19:16:38;;;;;;;31.47;16.13;;;2.70;1.00;;;;;;8363647;28;20208;-78
2023/04/03 19:20:39;;;;;;;20.60;12.00;;;2.70;1.00;;;;;;8380185;28;20239;-78
2023/04/03 19:24:58;;;;;;;19.17;9.90;;;2.60;1.00;;;;;;8361508;28;20190;-78
2023/04/03 19:28:59;;;;;;;35.57;18.27;;;2.50;1.00;;;;;;8357554;28;20240;-77
2023/04/03 19:33:01;;;;;;;76.57;33.13;;;2.60;1.00;;;;;;8339363;28;20239;-77
2023/04/03 19:37:02;;;;;;;55.53;25.33;;;2.60;1.00;;;;;;8329814;28;20226;-76
2023/04/03 19:41:08;;;;;;;31.50;12.97;;;2.60;1.00;;;;;;8381959;28;20192;-77
2023/04/03 19:45:10;;;;;;;30.93;14.40;;;2.60;1.00;;;;;;8390853;28;20199;-78
2023/04/03 19:49:12;;;;;;;16.47;8.40;;;2.50;1.00;;;;;;8397651;28;20206;-77
2023/04/03 19:53:18;;;;;;;14.13;7.03;;;2.40;1.00;;;;;;8389695;28;20204;-77
2023/04/03 19:57:19;;;;;;;18.47;7.70;;;2.40;1.00;;;;;;8396129;28;20216;-77
2023/04/03 20:01:25;;;;;;;27.77;12.87;;;2.30;1.00;;;;;;8389592;28;20181;-77
2023/04/03 20:05:27;;;;;;;35.67;19.10;;;2.30;1.00;;;;;;8405593;28;20244;-75
2023/04/03 20:09:29;;;;;;;35.83;19.70;;;2.40;1.00;;;;;;8372501;28;20244;-78
2023/04/03 20:13:33;;;;;;;27.50;13.37;;;2.40;1.00;;;;;;8361139;28;20181;-77
2023/04/03 20:17:34;;;;;;;24.60;12.10;;;2.40;1.00;;;;;;8360808;28;20186;-78
2023/04/03 20:21:38;;;;;;;15.37;8.20;;;2.30;1.00;;;;;;8369387;28;20268;-79
2023/04/03 20:25:44;;;;;;;15.80;8.10;;;2.30;1.00;;;;;;8360814;28;20185;-77
2023/04/03 20:29:45;;;;;;;16.43;8.70;;;2.30;1.00;;;;;;8382985;28;20212;-77
2023/04/03 20:33:47;;;;;;;18.20;8.93;;;2.30;1.00;;;;;;8376923;28;20177;-78
2023/04/03 20:37:48;;;;;;;26.57;12.03;;;2.20;1.00;;;;;;8392021;28;20188;-76
2023/04/03 20:41:53;;;;;;;23.20;13.17;;;2.20;1.00;;;;;;8378307;28;20209;-78
2023/04/03 20:46:08;;;;;;;12.30;7.20;;;2.20;1.00;;;;;;8376776;28;20290;-77
2023/04/03 20:50:10;;;;;;;16.47;8.90;;;2.10;1.00;;;;;;8358431;28;20213;-78
2023/04/03 20:54:11;;;;;;;17.53;9.27;;;2.10;1.00;;;;;;8354549;28;20328;-78
2023/04/03 20:58:13;;;;;;;11.10;6.20;;;2.10;1.00;;;;;;8350953;28;20225;-78
2023/04/03 21:02:15;;;;;;;8.97;5.50;;;2.10;1.00;;;;;;8354501;28;20240;-78
2023/04/03 21:06:54;;;;;;;8.13;4.53;;;2.10;1.00;;;;;;8354498;28;20190;-78
2023/04/03 21:11:33;;;;;;;15.00;7.43;;;2.20;1.00;;;;;;8370885;28;20273;-78
2023/04/03 21:15:53;;;;;;;28.93;15.87;;;2.20;1.00;;;;;;8368210;28;20263;-78
2023/04/03 21:19:54;;;;;;;25.73;15.33;;;2.20;1.00;;;;;;8350272;28;20181;-78
2023/04/03 21:24:05;;;;;;;21.47;11.10;;;2.10;1.00;;;;;;8352177;28;20185;-78
2023/04/03 21:28:06;;;;;;;18.63;9.77;;;2.10;1.00;;;;;;8363636;28;20202;-78
2023/04/03 21:32:07;;;;;;;11.83;6.57;;;2.10;1.00;;;;;;8348685;28;20188;-78
2023/04/03 21:36:09;;;;;;;26.63;16.50;;;2.10;1.00;;;;;;8356442;28;20181;-78
2023/04/03 21:40:11;;;;;;;29.63;11.67;;;2.10;1.00;;;;;;8350011;28;20186;-78
2023/04/03 21:44:12;;;;;;;10.93;5.40;;;2.00;1.00;;;;;;8367158;28;20189;-78
2023/04/03 21:48:16;;;;;;;9.90;4.50;;;1.90;1.00;;;;;;8353163;28;20201;-78
2023/04/03 21:52:16;;;;;;;9.43;5.43;;;1.80;1.00;;;;;;8349025;28;20208;-78
2023/04/03 21:56:21;;;;;;;9.03;4.60;;;1.80;1.00;;;;;;8356123;28;20235;-78
2023/04/03 22:00:22;;;;;;;12.63;5.37;;;1.70;1.00;;;;;;8352604;28;20197;-77
2023/04/03 22:04:25;;;;;;;11.77;7.10;;;1.70;1.00;;;;;;8352974;28;20216;-78
2023/04/03 22:08:29;;;;;;;12.77;6.60;;;1.80;1.00;;;;;;8354682;28;20220;-78
2023/04/03 22:12:31;;;;;;;24.20;12.40;;;1.80;1.00;;;;;;8377634;28;20181;-77
2023/04/03 22:16:35;;;;;;;17.03;8.27;;;1.80;1.00;;;;;;8350510;28;20248;-78
2023/04/03 22:20:36;;;;;;;21.57;10.83;;;1.80;1.00;;;;;;8357707;28;20196;-78
2023/04/03 22:24:37;;;;;;;22.03;10.80;;;1.80;1.00;;;;;;8355347;28;20300;-78
2023/04/03 22:28:49;;;;;;;15.87;8.43;;;1.80;1.00;;;;;;8358036;28;20235;-77
2023/04/03 22:32:53;;;;;;;17.20;8.20;;;1.80;1.00;;;;;;8369930;28;20186;-77
2023/04/03 22:36:57;;;;;;;12.17;7.17;;;1.80;1.00;;;;;;8353579;28;20216;-78
2023/04/03 22:41:00;;;;;;;15.30;8.67;;;1.90;1.00;;;;;;8374972;28;20182;-78
2023/04/03 22:45:14;;;;;;;9.83;5.43;;;1.90;1.00;;;;;;8360580;28;20192;-77
2023/04/03 22:49:24;;;;;;;12.50;7.33;;;1.90;1.00;;;;;;8358981;28;20217;-78
2023/04/03 22:53:28;;;;;;;16.73;9.37;;;1.90;1.00;;;;;;8357616;28;20212;-77
2023/04/03 22:57:30;;;;;;;12.30;7.23;;;2.00;1.00;;;;;;8363317;28;20332;-78